Time;durP1;ratioP1;P1;durP2;ratioP2;P2;SDS_P1;SDS_P2;PMS_P1;PMS_P2;Temp;Humidity;BMP_temperature;BMP_pressure;BME280_temperature;BME280_humidity;BME280_pressure;Samples;Min_cycle;Max_cycle;Signal;HPM_P1;HPM_P2
2022/04/14 00:02:58;;;;;;;6.63;5.93;;;22.00;69.20;;;;;;6234268;28;83996;-74
2022/04/14 00:06:00;;;;;;;6.65;6.05;;;22.00;69.30;;;;;;6243897;28;84111;-74
2022/04/14 00:09:03;;;;;;;6.45;5.82;;;22.00;69.40;;;;;;6235601;28;84442;-73
2022/04/14 00:12:07;;;;;;;6.93;6.22;;;22.00;69.40;;;;;;6261661;28;84478;-74
2022/04/14 00:15:11;;;;;;;6.50;5.90;;;22.00;69.30;;;;;;6260857;27;83574;-72
2022/04/14 00:18:13;;;;;;;6.00;5.40;;;22.00;69.30;;;;;;6262407;27;84073;-71
2022/04/14 00:21:15;;;;;;;6.55;5.32;;;22.00;69.30;;;;;;6261233;27;83035;-73
2022/04/14 00:24:18;;;;;;;6.10;5.50;;;22.00;69.30;;;;;;6259455;27;85046;-74
2022/04/14 00:27:20;;;;;;;6.13;5.53;;;22.00;69.30;;;;;;6261296;27;83998;-73
2022/04/14 00:30:22;;;;;;;6.20;5.60;;;22.00;69.30;;;;;;6260009;27;84041;-74
2022/04/14 00:33:25;;;;;;;5.78;5.28;;;22.00;69.30;;;;;;6260114;27;83992;-73
2022/04/14 00:36:27;;;;;;;6.82;5.75;;;22.00;69.30;;;;;;6261510;27;83162;-73
2022/04/14 00:39:30;;;;;;;5.88;5.28;;;21.90;69.30;;;;;;6261936;27;83933;-74
2022/04/14 00:42:32;;;;;;;6.30;5.30;;;22.00;69.30;;;;;;6235969;27;83990;-73
2022/04/14 00:45:34;;;;;;;5.90;5.40;;;21.90;69.10;;;;;;6234186;28;82294;-74
2022/04/14 00:48:37;;;;;;;5.65;5.15;;;22.00;69.20;;;;;;6258633;27;84126;-73
2022/04/14 00:51:38;;;;;;;5.60;5.10;;;22.00;69.10;;;;;;6260542;27;82855;-74
2022/04/14 00:54:42;;;;;;;5.65;5.15;;;22.00;69.10;;;;;;6260230;27;84954;-73
2022/04/14 00:57:44;;;;;;;5.72;5.22;;;22.00;69.10;;;;;;6255221;27;84082;-74
2022/04/14 01:00:46;;;;;;;5.90;5.32;;;22.00;69.10;;;;;;6260205;27;82897;-73
2022/04/14 01:03:49;;;;;;;5.60;5.10;;;22.00;69.10;;;;;;6260991;27;84110;-71
2022/04/14 01:06:52;;;;;;;5.32;4.82;;;21.90;69.10;;;;;;6259631;27;84114;-74
2022/04/14 01:09:56;;;;;;;5.90;5.25;;;21.90;69.10;;;;;;6258991;27;82918;-73
2022/04/14 01:12:58;;;;;;;6.07;5.03;;;21.90;69.10;;;;;;6259203;27;84232;-73
2022/04/14 01:16:01;;;;;;;5.50;5.00;;;21.90;69.00;;;;;;6260549;27;81969;-73
2022/04/14 01:19:03;;;;;;;5.30;4.80;;;21.90;69.10;;;;;;6258856;27;84225;-74
2022/04/14 01:22:09;;;;;;;5.40;4.90;;;21.90;69.10;;;;;;6258440;27;84217;-74
2022/04/14 01:25:12;;;;;;;5.60;4.88;;;21.90;69.10;;;;;;6257626;27;84353;-74
2022/04/14 01:28:14;;;;;;;6.82;5.05;;;21.90;69.10;;;;;;6259860;27;83976;-73
2022/04/14 01:31:16;;;;;;;5.25;4.75;;;21.90;69.10;;;;;;6258473;27;83976;-74
2022/04/14 01:34:18;;;;;;;4.93;4.47;;;21.90;69.00;;;;;;6260274;27;83883;-73
2022/04/14 01:37:21;;;;;;;5.00;4.57;;;21.90;69.00;;;;;;6258112;27;84001;-73
2022/04/14 01:40:24;;;;;;;5.10;4.60;;;21.90;69.00;;;;;;6253085;27;81832;-72
2022/04/14 01:43:26;;;;;;;5.45;4.95;;;21.90;68.90;;;;;;6250719;28;82049;-72
2022/04/14 01:46:47;;;;;;;5.47;4.97;;;21.90;68.90;;;;;;6259083;27;81975;-73
2022/04/14 01:49:49;;;;;;;4.82;4.32;;;21.90;68.90;;;;;;6259876;27;84034;-73
2022/04/14 01:52:51;;;;;;;4.88;4.47;;;21.90;68.90;;;;;;6259176;27;84018;-74
2022/04/14 01:55:55;;;;;;;5.93;4.72;;;21.90;68.90;;;;;;6259191;27;83668;-73
2022/04/14 01:58:57;;;;;;;5.50;4.88;;;21.90;68.90;;;;;;6259668;28;84462;-74
2022/04/14 02:01:59;;;;;;;4.93;4.53;;;21.90;68.90;;;;;;6262701;27;83944;-72
2022/04/14 02:05:01;;;;;;;4.80;4.40;;;21.90;69.00;;;;;;6264487;27;84143;-73
2022/04/14 02:08:03;;;;;;;4.95;4.40;;;21.90;68.90;;;;;;6263636;27;82770;-74
2022/04/14 02:11:06;;;;;;;4.88;4.45;;;21.90;69.00;;;;;;6263601;27;84109;-73
2022/04/14 02:14:08;;;;;;;4.38;4.03;;;21.80;68.90;;;;;;6261807;27;84057;-73
2022/04/14 02:17:10;;;;;;;4.55;4.15;;;21.90;68.90;;;;;;6264494;27;83562;-73
2022/04/14 02:20:13;;;;;;;4.70;4.30;;;21.90;69.00;;;;;;6262106;27;84457;-75
2022/04/14 02:23:15;;;;;;;4.80;4.30;;;21.90;68.90;;;;;;6263227;28;82973;-73
2022/04/14 02:26:19;;;;;;;4.72;4.22;;;21.90;68.90;;;;;;6262250;27;85103;-75
2022/04/14 02:29:21;;;;;;;4.60;4.20;;;21.80;68.80;;;;;;6262567;27;84185;-73
2022/04/14 02:32:23;;;;;;;4.43;4.03;;;21.90;68.90;;;;;;6261637;27;84297;-74
2022/04/14 02:35:25;;;;;;;4.97;4.18;;;21.90;68.80;;;;;;6262512;27;82923;-74
2022/04/14 02:38:27;;;;;;;4.40;4.00;;;21.90;68.90;;;;;;6263623;27;82888;-74
2022/04/14 02:41:30;;;;;;;4.65;4.25;;;21.90;68.90;;;;;;6246456;27;83988;-75
2022/04/14 02:44:32;;;;;;;4.38;3.97;;;21.90;68.90;;;;;;6236505;28;84124;-73
2022/04/14 02:47:35;;;;;;;4.60;4.20;;;21.90;69.80;;;;;;6239442;28;83636;-74
2022/04/14 02:50:38;;;;;;;4.53;4.10;;;21.90;68.90;;;;;;6254705;28;84651;-76
2022/04/14 02:53:40;;;;;;;4.07;3.78;;;21.80;68.90;;;;;;6262979;27;84262;-74
2022/04/14 02:56:43;;;;;;;4.40;4.00;;;21.80;68.80;;;;;;6261134;27;85626;-75
2022/04/14 02:59:45;;;;;;;4.45;4.05;;;21.80;68.80;;;;;;6262507;27;84129;-75
2022/04/14 03:02:47;;;;;;;4.78;4.28;;;21.80;68.80;;;;;;6262952;27;84020;-74
2022/04/14 03:05:49;;;;;;;4.25;3.85;;;21.80;68.80;;;;;;6261621;27;84231;-75
2022/04/14 03:08:51;;;;;;;4.50;4.10;;;21.80;68.80;;;;;;6260944;27;83940;-74
2022/04/14 03:11:55;;;;;;;4.20;3.80;;;21.90;68.90;;;;;;6261495;27;84014;-74
2022/04/14 03:14:57;;;;;;;4.35;3.75;;;21.80;68.80;;;;;;6262941;27;84155;-73
2022/04/14 03:17:59;;;;;;;3.97;3.58;;;21.80;68.80;;;;;;6262922;27;83292;-74
2022/04/14 03:21:01;;;;;;;4.13;3.72;;;21.90;68.80;;;;;;6260143;27;84424;-74
2022/04/14 03:24:03;;;;;;;5.22;3.90;;;21.80;68.80;;;;;;6261788;27;84078;-74
2022/04/14 03:27:07;;;;;;;4.22;3.83;;;21.80;68.80;;;;;;6262920;27;84345;-74
2022/04/14 03:30:10;;;;;;;5.03;4.18;;;21.80;68.90;;;;;;6260862;27;84488;-75
2022/04/14 03:33:12;;;;;;;4.95;4.10;;;21.80;68.90;;;;;;6263462;28;84149;-74
2022/04/14 03:36:14;;;;;;;4.40;3.70;;;21.80;68.90;;;;;;6261296;27;84230;-75
2022/04/14 03:39:17;;;;;;;4.13;3.72;;;21.80;68.90;;;;;;6262763;27;84059;-76
2022/04/14 03:42:20;;;;;;;4.25;3.85;;;21.80;68.90;;;;;;6239207;27;83975;-75
2022/04/14 03:45:22;;;;;;;4.05;3.70;;;21.80;68.90;;;;;;6236443;28;84032;-74
2022/04/14 03:48:24;;;;;;;3.95;3.58;;;21.80;69.00;;;;;;6236095;28;83176;-74
2022/04/14 03:51:26;;;;;;;3.83;3.53;;;21.80;68.90;;;;;;6245640;28;84332;-75
2022/04/14 03:54:28;;;;;;;4.65;3.65;;;21.80;68.90;;;;;;6260550;27;84045;-75
2022/04/14 03:57:32;;;;;;;3.67;3.30;;;21.80;68.90;;;;;;6261248;28;84269;-75
2022/04/14 04:00:34;;;;;;;4.57;3.58;;;21.80;68.80;;;;;;6261123;27;84057;-74
2022/04/14 04:03:36;;;;;;;3.60;3.30;;;21.80;68.80;;;;;;6260468;28;83297;-75
2022/04/14 04:06:38;;;;;;;4.55;3.78;;;21.90;68.90;;;;;;6259169;27;82920;-76
2022/04/14 04:09:40;;;;;;;3.70;3.40;;;21.80;68.80;;;;;;6261130;27;82887;-75
2022/04/14 04:12:43;;;;;;;3.90;3.60;;;21.80;68.80;;;;;;6257742;27;84307;-75
2022/04/14 04:15:46;;;;;;;4.38;3.40;;;21.90;68.70;;;;;;6259840;27;84328;-75
2022/04/14 04:18:48;;;;;;;4.18;3.65;;;21.90;68.70;;;;;;6262858;27;83281;-76
2022/04/14 04:21:50;;;;;;;3.90;3.50;;;21.90;68.60;;;;;;6260310;27;83290;-76
2022/04/14 04:24:52;;;;;;;3.63;3.33;;;21.90;68.60;;;;;;6261108;27;82905;-76
2022/04/14 04:27:55;;;;;;;3.78;3.40;;;21.90;68.60;;;;;;6259937;27;84978;-75
2022/04/14 04:30:57;;;;;;;3.70;3.40;;;21.90;68.60;;;;;;6262151;27;82876;-73
2022/04/14 04:33:59;;;;;;;3.65;3.35;;;21.90;68.60;;;;;;6259702;27;83655;-76
2022/04/14 04:37:01;;;;;;;3.78;3.47;;;21.90;68.50;;;;;;6260834;27;84062;-74
2022/04/14 04:40:04;;;;;;;3.72;3.42;;;22.00;68.60;;;;;;6255811;27;84126;-76
2022/04/14 04:43:08;;;;;;;3.55;3.25;;;21.90;68.60;;;;;;6235773;28;83965;-75
2022/04/14 04:46:10;;;;;;;3.60;3.30;;;21.90;68.50;;;;;;6249628;28;86208;-75
2022/04/14 04:49:12;;;;;;;3.95;3.10;;;22.00;68.60;;;;;;6260252;27;83320;-74
2022/04/14 04:52:14;;;;;;;3.50;3.20;;;21.90;69.30;;;;;;6260727;27;83987;-74
2022/04/14 04:55:16;;;;;;;3.78;3.47;;;22.00;68.50;;;;;;6260385;27;84436;-74
2022/04/14 04:58:19;;;;;;;3.85;2.97;;;22.00;68.40;;;;;;6260104;27;84228;-76
2022/04/14 05:01:22;;;;;;;3.78;3.22;;;22.00;68.40;;;;;;6259089;27;84676;-75
2022/04/14 05:04:24;;;;;;;3.70;3.40;;;22.00;68.40;;;;;;6261178;27;83968;-75
2022/04/14 05:07:26;;;;;;;3.83;3.10;;;22.00;68.40;;;;;;6259928;27;84075;-75
2022/04/14 05:10:28;;;;;;;3.78;3.47;;;22.00;68.40;;;;;;6258614;27;82259;-73
2022/04/14 05:13:31;;;;;;;3.45;3.08;;;22.00;68.40;;;;;;6261216;27;84490;-75
2022/04/14 05:16:33;;;;;;;3.60;3.30;;;22.00;68.40;;;;;;6259138;27;84139;-74
2022/04/14 05:19:53;;;;;;;3.60;3.28;;;22.00;68.40;;;;;;6260753;27;82114;-76
2022/04/14 05:22:55;;;;;;;3.50;3.20;;;22.00;68.40;;;;;;6259934;27;84386;-74
2022/04/14 05:25:57;;;;;;;3.58;3.28;;;22.10;68.40;;;;;;6259220;27;84291;-75
2022/04/14 05:29:01;;;;;;;3.50;3.20;;;22.10;68.40;;;;;;6259598;27;85197;-74
2022/04/14 05:32:03;;;;;;;3.20;2.90;;;22.10;68.40;;;;;;6259563;27;83211;-77
2022/04/14 05:35:06;;;;;;;3.85;3.25;;;22.10;68.40;;;;;;6263209;27;84042;-75
2022/04/14 05:38:08;;;;;;;3.45;3.13;;;22.10;68.30;;;;;;6264455;27;84083;-75
2022/04/14 05:41:10;;;;;;;3.53;3.22;;;22.10;68.30;;;;;;6249986;27;82970;-75
2022/04/14 05:44:13;;;;;;;3.63;3.17;;;22.20;68.30;;;;;;6237788;28;82955;-75
2022/04/14 05:47:15;;;;;;;3.53;3.22;;;22.20;68.30;;;;;;6239215;28;84104;-76
2022/04/14 05:50:18;;;;;;;3.95;3.25;;;22.20;68.30;;;;;;6253839;28;83331;-75
2022/04/14 05:53:26;;;;;;;3.50;3.20;;;22.20;68.30;;;;;;6264983;27;84094;-75
2022/04/14 05:56:28;;;;;;;3.42;3.13;;;22.20;68.40;;;;;;6262996;27;83973;-75
2022/04/14 05:59:32;;;;;;;3.45;2.90;;;22.20;68.40;;;;;;6262372;27;84920;-75
2022/04/14 06:02:34;;;;;;;4.15;3.63;;;22.20;68.30;;;;;;6264254;27;84068;-75
2022/04/14 06:05:36;;;;;;;3.60;3.30;;;22.20;68.30;;;;;;6262182;27;82711;-76
2022/04/14 06:08:38;;;;;;;3.70;3.40;;;22.20;68.30;;;;;;6261933;27;84079;-74
2022/04/14 06:11:40;;;;;;;3.60;3.30;;;22.30;68.40;;;;;;6263649;27;84148;-75
2022/04/14 06:14:43;;;;;;;3.30;2.85;;;22.20;68.40;;;;;;6261996;27;82187;-73
2022/04/14 06:17:46;;;;;;;3.38;3.08;;;22.30;68.40;;;;;;6263944;27;82995;-74
2022/04/14 06:20:49;;;;;;;4.45;3.30;;;22.30;68.40;;;;;;6262807;27;83277;-75
2022/04/14 06:23:51;;;;;;;4.07;3.33;;;22.30;68.40;;;;;;6262522;27;83956;-75
2022/04/14 06:26:53;;;;;;;3.78;3.38;;;22.30;68.40;;;;;;6249285;27;83975;-77
2022/04/14 06:29:56;;;;;;;4.13;3.42;;;22.30;68.30;;;;;;6242995;28;85016;-75
2022/04/14 06:32:59;;;;;;;3.35;3.00;;;22.30;68.40;;;;;;6235511;28;84221;-77
2022/04/14 06:36:01;;;;;;;3.85;3.45;;;22.40;68.40;;;;;;6238259;28;83925;-75
2022/04/14 06:39:03;;;;;;;3.20;2.90;;;22.40;68.40;;;;;;6236794;28;83102;-75
2022/04/14 06:42:06;;;;;;;3.55;3.10;;;22.40;68.40;;;;;;6236584;28;82916;-76
2022/04/14 06:45:10;;;;;;;3.50;3.20;;;22.40;68.40;;;;;;6244153;27;84029;-75
2022/04/14 06:48:12;;;;;;;3.95;3.55;;;22.40;68.40;;;;;;6235891;28;84406;-75
2022/04/14 06:51:14;;;;;;;3.50;3.20;;;22.40;68.40;;;;;;6238233;28;83461;-72
2022/04/14 06:54:17;;;;;;;3.20;2.90;;;22.40;68.40;;;;;;6234966;28;84174;-74
2022/04/14 06:57:20;;;;;;;3.15;2.85;;;22.40;68.40;;;;;;6240956;28;84068;-73
2022/04/14 07:00:23;;;;;;;3.30;2.83;;;22.40;68.40;;;;;;6237334;28;85038;-72
2022/04/14 07:03:27;;;;;;;3.30;3.00;;;22.50;68.50;;;;;;6243109;28;82738;-75
2022/04/14 07:06:29;;;;;;;4.00;2.85;;;22.50;68.60;;;;;;6238234;28;84076;-74
2022/04/14 07:09:32;;;;;;;3.42;3.13;;;22.50;68.50;;;;;;6237495;28;84341;-74
2022/04/14 07:12:34;;;;;;;3.50;3.20;;;22.50;68.50;;;;;;6242343;28;83903;-73
2022/04/14 07:15:37;;;;;;;3.25;2.95;;;22.50;68.50;;;;;;6241756;28;83961;-73
2022/04/14 07:18:40;;;;;;;3.58;3.28;;;22.50;68.50;;;;;;6236510;28;84305;-73
2022/04/14 07:21:42;;;;;;;3.45;3.15;;;22.60;68.50;;;;;;6238803;28;82249;-74
2022/04/14 07:24:45;;;;;;;3.10;2.80;;;22.60;68.60;;;;;;6236593;28;84154;-75
2022/04/14 07:27:47;;;;;;;3.17;2.88;;;22.60;68.60;;;;;;6240890;27;84453;-73
2022/04/14 07:30:50;;;;;;;3.20;2.90;;;22.60;68.60;;;;;;6234382;28;85226;-73
2022/04/14 07:33:52;;;;;;;3.38;3.08;;;22.60;68.60;;;;;;6236932;28;84635;-74
2022/04/14 07:36:54;;;;;;;3.10;2.90;;;22.60;68.60;;;;;;6236222;28;84279;-73
2022/04/14 07:39:56;;;;;;;3.25;2.95;;;22.60;68.70;;;;;;6235892;28;84041;-73
2022/04/14 07:42:58;;;;;;;3.83;3.15;;;22.60;68.80;;;;;;6236122;28;84333;-73
2022/04/14 07:46:03;;;;;;;3.20;2.90;;;22.60;68.80;;;;;;6236005;28;84072;-75
2022/04/14 07:49:05;;;;;;;3.40;3.10;;;22.60;68.80;;;;;;6241565;28;83698;-72
2022/04/14 07:52:08;;;;;;;3.65;2.90;;;22.60;68.90;;;;;;6262357;27;82072;-70
2022/04/14 07:55:10;;;;;;;4.78;3.38;;;22.70;70.10;;;;;;6260855;27;84261;-75
2022/04/14 07:58:12;;;;;;;3.50;3.20;;;22.70;69.40;;;;;;6246621;27;84010;-74
2022/04/14 08:01:18;;;;;;;3.35;3.05;;;22.70;70.60;;;;;;6236237;28;83690;-75
2022/04/14 08:04:20;;;;;;;3.20;2.90;;;22.70;70.60;;;;;;6236569;28;84452;-73
2022/04/14 08:07:22;;;;;;;3.00;2.75;;;22.80;70.80;;;;;;6246203;28;82742;-76
2022/04/14 08:10:24;;;;;;;3.20;2.90;;;22.80;70.60;;;;;;6237578;28;82930;-76
2022/04/14 08:13:29;;;;;;;3.25;2.95;;;22.80;70.70;;;;;;6236344;28;83964;-78
2022/04/14 08:16:32;;;;;;;3.00;2.70;;;22.80;70.60;;;;;;6237717;28;81949;-73
2022/04/14 08:19:38;;;;;;;3.95;2.97;;;22.80;70.30;;;;;;6242210;28;83995;-76
2022/04/14 08:22:48;;;;;;;3.00;2.70;;;22.80;70.20;;;;;;6248074;27;83065;-77
2022/04/14 08:25:50;;;;;;;3.88;3.20;;;22.80;70.20;;;;;;6241958;28;84307;-76
2022/04/14 08:28:53;;;;;;;3.15;2.85;;;22.80;70.10;;;;;;6235770;27;84038;-75
2022/04/14 08:31:57;;;;;;;4.15;3.20;;;22.90;70.00;;;;;;6235603;28;85002;-76
2022/04/14 08:34:59;;;;;;;3.13;2.83;;;22.90;69.90;;;;;;6236120;28;84116;-76
2022/04/14 08:38:06;;;;;;;3.38;2.80;;;22.90;69.80;;;;;;6233096;28;84024;-75
2022/04/14 08:41:09;;;;;;;3.63;2.90;;;22.80;69.70;;;;;;6237029;28;85723;-75
2022/04/14 08:44:14;;;;;;;3.47;3.17;;;22.90;69.80;;;;;;6240284;27;84400;-73
2022/04/14 08:47:18;;;;;;;3.45;2.80;;;22.80;69.80;;;;;;6237155;28;84031;-75
2022/04/14 08:50:21;;;;;;;3.03;2.72;;;22.80;69.70;;;;;;6234025;28;84052;-75
2022/04/14 08:53:26;;;;;;;3.10;2.65;;;22.80;69.60;;;;;;6239803;28;83695;-78
2022/04/14 08:56:30;;;;;;;3.20;2.90;;;22.90;69.70;;;;;;6235063;28;84429;-75
2022/04/14 08:59:32;;;;;;;3.08;2.80;;;22.90;69.70;;;;;;6235011;28;82885;-74
2022/04/14 09:02:37;;;;;;;3.30;3.00;;;22.90;69.70;;;;;;6255826;27;83823;-73
2022/04/14 09:05:39;;;;;;;3.88;2.80;;;22.80;69.60;;;;;;6252925;27;83962;-73
2022/04/14 09:08:44;;;;;;;3.10;2.80;;;22.80;69.70;;;;;;6231838;27;83952;-74
2022/04/14 09:11:46;;;;;;;2.90;2.70;;;22.90;69.80;;;;;;6233067;28;83398;-76
2022/04/14 09:14:49;;;;;;;2.75;2.55;;;22.90;69.80;;;;;;6232245;28;84071;-74
2022/04/14 09:17:53;;;;;;;3.30;2.90;;;22.80;69.80;;;;;;6230896;28;84059;-76
2022/04/14 09:21:04;;;;;;;3.17;2.67;;;22.90;69.90;;;;;;6252535;28;83975;-76
2022/04/14 09:24:06;;;;;;;3.60;2.83;;;22.90;69.90;;;;;;6257051;27;82210;-75
2022/04/14 09:27:08;;;;;;;3.10;2.80;;;22.90;69.90;;;;;;6257550;27;83992;-74
2022/04/14 09:30:10;;;;;;;3.05;2.67;;;22.90;69.90;;;;;;6256174;27;84318;-75
2022/04/14 09:33:19;;;;;;;3.17;2.78;;;22.90;70.00;;;;;;6256331;27;85092;-75
2022/04/14 09:36:23;;;;;;;3.00;2.70;;;22.90;70.00;;;;;;6258061;27;84151;-75
2022/04/14 09:39:25;;;;;;;2.83;2.63;;;22.90;70.00;;;;;;6255183;27;84055;-76
2022/04/14 09:42:29;;;;;;;3.70;2.80;;;22.90;70.00;;;;;;6234855;27;84124;-74
2022/04/14 09:45:32;;;;;;;2.88;2.67;;;22.90;70.00;;;;;;6245048;27;84434;-74
2022/04/14 09:49:14;;;;;;;3.33;3.03;;;22.90;70.00;;;;;;6257577;27;83953;-76
2022/04/14 09:52:16;;;;;;;3.28;2.97;;;22.90;70.00;;;;;;6243088;27;84084;-76
2022/04/14 09:55:18;;;;;;;3.20;2.90;;;22.90;69.90;;;;;;6236940;28;83672;-76
2022/04/14 09:58:21;;;;;;;4.10;3.70;;;22.90;69.90;;;;;;6255955;27;83674;-77
2022/04/14 10:01:24;;;;;;;4.10;3.70;;;22.90;69.80;;;;;;6258047;27;82735;-77
2022/04/14 10:04:32;;;;;;;3.70;3.40;;;22.90;69.80;;;;;;6255210;27;85369;-77
2022/04/14 10:07:34;;;;;;;4.53;4.03;;;22.90;69.80;;;;;;6234000;28;84097;-77
2022/04/14 10:10:38;;;;;;;4.05;3.72;;;22.90;69.90;;;;;;6231544;28;82664;-77
2022/04/14 10:13:41;;;;;;;4.18;3.78;;;22.90;70.80;;;;;;6232468;28;82696;-77
2022/04/14 10:16:44;;;;;;;4.18;3.78;;;22.90;70.00;;;;;;6231296;28;83013;-75
2022/04/14 10:19:48;;;;;;;4.30;3.90;;;22.90;70.00;;;;;;6240360;28;82907;-78
2022/04/14 10:22:50;;;;;;;4.75;3.30;;;22.90;70.80;;;;;;6260192;27;83981;-76
2022/04/14 10:25:53;;;;;;;4.63;3.78;;;22.90;70.00;;;;;;6259766;27;83282;-76
2022/04/14 10:28:56;;;;;;;4.53;4.10;;;22.90;70.10;;;;;;6261195;27;83391;-76
2022/04/14 10:31:59;;;;;;;5.65;4.07;;;22.90;70.20;;;;;;6255577;27;83051;-78
2022/04/14 10:35:04;;;;;;;5.03;3.80;;;23.00;70.30;;;;;;6259971;27;84966;-76
2022/04/14 10:38:12;;;;;;;4.20;3.80;;;22.90;70.30;;;;;;6262006;27;84514;-76
2022/04/14 10:41:17;;;;;;;6.03;4.47;;;22.90;70.20;;;;;;6247254;27;84151;-75
2022/04/14 10:44:21;;;;;;;5.28;4.63;;;23.00;70.50;;;;;;6235152;28;84007;-71
2022/04/14 10:47:52;;;;;;;4.40;4.00;;;22.90;70.40;;;;;;6255187;28;82927;-76
2022/04/14 10:51:20;;;;;;;5.72;3.90;;;22.90;70.50;;;;;;6266731;27;82196;-76
2022/04/14 10:54:22;;;;;;;4.70;3.78;;;22.90;70.70;;;;;;6258764;27;84270;-73
2022/04/14 10:57:38;;;;;;;4.80;4.05;;;22.90;70.80;;;;;;6259899;27;82190;-73
2022/04/14 11:00:40;;;;;;;5.97;3.80;;;22.90;70.90;;;;;;6258267;27;83936;-77
2022/04/14 11:03:47;;;;;;;5.00;4.40;;;22.90;71.00;;;;;;6250560;27;82741;-76
2022/04/14 11:06:51;;;;;;;5.72;4.70;;;22.90;72.30;;;;;;6247174;28;85095;-77
2022/04/14 11:10:01;;;;;;;4.88;4.32;;;22.90;71.10;;;;;;6237489;27;84040;-74
2022/04/14 11:13:03;;;;;;;6.90;4.43;;;22.90;71.10;;;;;;6244155;28;84219;-74
2022/04/14 11:16:38;;;;;;;6.03;4.95;;;22.90;71.10;;;;;;6241562;28;84134;-74
2022/04/14 11:19:40;;;;;;;5.05;4.55;;;23.00;71.60;;;;;;6241386;28;84091;-75
2022/04/14 11:23:06;;;;;;;5.00;4.50;;;22.90;71.70;;;;;;6233202;28;82141;-77
2022/04/14 11:26:10;;;;;;;5.32;4.85;;;23.00;71.80;;;;;;6235631;28;84087;-75
2022/04/14 11:29:12;;;;;;;5.53;5.03;;;23.00;72.00;;;;;;6237295;28;83596;-75
2022/04/14 11:32:16;;;;;;;5.38;4.88;;;23.00;72.00;;;;;;6237872;28;83986;-76
2022/04/14 11:35:18;;;;;;;5.35;4.85;;;23.00;72.00;;;;;;6234930;28;84106;-76
2022/04/14 11:38:52;;;;;;;6.15;5.50;;;23.00;71.80;;;;;;6233464;28;85020;-76
2022/04/14 11:41:55;;;;;;;6.85;5.15;;;23.00;72.00;;;;;;6226941;28;84011;-75
2022/04/14 11:45:01;;;;;;;6.38;5.05;;;23.00;71.80;;;;;;6234926;28;84352;-76
2022/04/14 11:48:05;;;;;;;5.97;5.20;;;23.00;71.60;;;;;;6234660;28;82718;-75
2022/04/14 11:51:07;;;;;;;6.60;5.72;;;23.00;71.50;;;;;;6234331;28;82930;-77
2022/04/14 11:54:11;;;;;;;5.85;5.32;;;23.00;71.40;;;;;;6236287;28;84377;-75
2022/04/14 11:57:19;;;;;;;6.55;5.75;;;23.00;71.40;;;;;;6233309;27;85044;-76
2022/04/14 12:00:22;;;;;;;5.25;4.78;;;23.00;71.30;;;;;;6233487;28;81519;-76
2022/04/14 12:03:31;;;;;;;6.88;5.45;;;23.00;71.20;;;;;;6232817;28;84079;-75
2022/04/14 12:06:34;;;;;;;5.85;5.30;;;23.00;71.30;;;;;;6243274;28;82919;-77
2022/04/14 12:09:38;;;;;;;5.20;4.45;;;23.00;71.50;;;;;;6257782;28;84670;-75
2022/04/14 12:12:40;;;;;;;6.60;4.78;;;23.10;71.50;;;;;;6232356;27;83146;-76
2022/04/14 12:15:42;;;;;;;5.03;4.38;;;23.00;71.40;;;;;;6234025;28;84083;-73
2022/04/14 12:18:51;;;;;;;5.18;4.68;;;23.10;71.40;;;;;;6242445;28;84109;-74
2022/04/14 12:22:04;;;;;;;5.20;4.18;;;23.10;71.50;;;;;;6235320;28;86085;-75
2022/04/14 12:25:10;;;;;;;6.30;4.10;;;23.10;71.40;;;;;;6249543;27;83993;-75
2022/04/14 12:28:12;;;;;;;4.35;3.95;;;23.10;71.40;;;;;;6260311;27;82914;-74
2022/04/14 12:31:16;;;;;;;4.30;3.90;;;23.10;71.30;;;;;;6260705;27;82505;-75
2022/04/14 12:34:18;;;;;;;5.75;3.90;;;23.10;71.30;;;;;;6261399;27;84694;-74
2022/04/14 12:37:21;;;;;;;4.25;3.85;;;23.00;71.20;;;;;;6258806;27;82875;-75
2022/04/14 12:40:25;;;;;;;4.88;3.47;;;23.00;71.30;;;;;;6254112;27;85006;-74
2022/04/14 12:43:28;;;;;;;5.10;3.88;;;23.10;71.30;;;;;;6236601;28;84146;-74
2022/04/14 12:46:36;;;;;;;4.70;4.18;;;23.00;71.20;;;;;;6234539;28;84317;-76
2022/04/14 12:49:38;;;;;;;17.70;6.78;;;23.10;71.90;;;;;;6245417;28;83528;-76
2022/04/14 12:52:46;;;;;;;20.65;7.10;;;23.10;74.90;;;;;;6260425;27;83226;-75
2022/04/14 12:55:49;;;;;;;11.40;6.75;;;23.10;76.20;;;;;;6259959;27;84434;-75
2022/04/14 12:59:12;;;;;;;20.83;16.38;;;23.10;74.70;;;;;;6259618;27;83224;-74
2022/04/14 13:02:21;;;;;;;56.47;51.38;;;23.10;75.00;;;;;;6248492;27;83310;-74
2022/04/14 13:05:28;;;;;;;22.13;20.02;;;23.10;79.60;;;;;;6233373;28;83609;-76
2022/04/14 13:08:33;;;;;;;15.68;13.70;;;23.10;77.10;;;;;;6258136;27;83401;-75
2022/04/14 13:11:43;;;;;;;10.82;9.73;;;23.10;75.50;;;;;;6258354;27;84303;-76
2022/04/14 13:14:47;;;;;;;11.00;7.72;;;23.10;74.60;;;;;;6258687;27;84141;-75
2022/04/14 13:17:49;;;;;;;7.40;6.70;;;23.10;74.10;;;;;;6258849;27;84024;-76
2022/04/14 13:20:51;;;;;;;6.30;5.53;;;23.10;73.80;;;;;;6259621;27;84041;-76
2022/04/14 13:23:53;;;;;;;5.70;5.03;;;23.10;73.50;;;;;;6259593;27;84056;-76
2022/04/14 13:26:58;;;;;;;5.82;5.30;;;23.00;73.30;;;;;;6261078;27;83948;-74
2022/04/14 13:30:00;;;;;;;7.95;5.93;;;23.00;73.20;;;;;;6257948;27;83985;-75
2022/04/14 13:33:03;;;;;;;8.07;5.57;;;23.00;73.20;;;;;;6260205;27;81208;-76
2022/04/14 13:36:05;;;;;;;7.20;5.93;;;23.00;73.00;;;;;;6259854;28;83072;-75
2022/04/14 13:39:08;;;;;;;5.97;5.38;;;23.00;73.00;;;;;;6259549;28;83766;-76
2022/04/14 13:42:12;;;;;;;7.85;7.03;;;23.00;73.20;;;;;;6238015;27;84335;-75
2022/04/14 13:45:14;;;;;;;7.60;7.00;;;23.00;73.30;;;;;;6234386;28;84060;-74
2022/04/14 13:48:16;;;;;;;7.78;6.47;;;23.00;73.30;;;;;;6233523;28;84043;-76
2022/04/14 13:51:18;;;;;;;6.88;6.18;;;23.00;73.20;;;;;;6258525;28;84072;-76
2022/04/14 13:54:20;;;;;;;6.97;6.28;;;23.00;73.30;;;;;;6260041;27;82713;-75
2022/04/14 13:57:23;;;;;;;7.40;6.00;;;23.00;73.50;;;;;;6264129;27;82108;-76
2022/04/14 14:00:26;;;;;;;6.65;6.05;;;22.90;73.40;;;;;;6263497;27;84129;-75
2022/04/14 14:03:29;;;;;;;6.95;6.20;;;22.90;73.50;;;;;;6263453;27;82224;-75
2022/04/14 14:06:31;;;;;;;6.55;5.97;;;22.90;73.50;;;;;;6263253;27;83989;-76
2022/04/14 14:09:33;;;;;;;7.20;6.00;;;22.90;74.40;;;;;;6262790;27;83123;-76
2022/04/14 14:12:39;;;;;;;7.40;6.70;;;22.90;73.30;;;;;;6262333;27;83869;-74
2022/04/14 14:15:41;;;;;;;6.70;6.13;;;22.90;73.30;;;;;;6241541;27;83770;-75
2022/04/14 14:18:44;;;;;;;8.38;6.13;;;23.00;74.20;;;;;;6237596;28;84081;-76
2022/04/14 14:21:46;;;;;;;7.55;6.75;;;23.00;73.80;;;;;;6234520;28;84260;-75
2022/04/14 14:24:48;;;;;;;8.35;7.15;;;22.90;73.70;;;;;;6236504;28;84290;-75
2022/04/14 14:27:51;;;;;;;8.50;7.40;;;22.90;73.80;;;;;;6236499;27;82959;-74
2022/04/14 14:30:53;;;;;;;7.13;6.40;;;22.90;74.20;;;;;;6235035;27;84032;-75
2022/04/14 14:33:56;;;;;;;6.65;5.82;;;22.90;73.70;;;;;;6238572;27;82229;-75
2022/04/14 14:36:58;;;;;;;6.78;6.18;;;22.90;73.60;;;;;;6234233;28;84125;-74
2022/04/14 14:40:00;;;;;;;8.43;7.63;;;22.90;73.50;;;;;;6233854;28;83664;-75
2022/04/14 14:43:04;;;;;;;7.82;7.13;;;22.90;73.70;;;;;;6233624;28;85342;-72
2022/04/14 14:46:06;;;;;;;7.80;7.03;;;22.90;73.30;;;;;;6236363;28;84065;-76
2022/04/14 14:49:08;;;;;;;7.18;6.30;;;22.90;73.50;;;;;;6235586;28;84032;-74
2022/04/14 14:52:10;;;;;;;6.63;6.00;;;22.90;73.20;;;;;;6238871;28;84015;-75
2022/04/14 14:55:13;;;;;;;6.65;6.05;;;22.90;73.00;;;;;;6235896;28;82937;-75
2022/04/14 15:01:36;;;;;;;6.63;6.03;;;22.90;72.80;;;;;;6269361;27;82315;-75
2022/04/14 15:04:38;;;;;;;7.10;6.40;;;22.90;72.60;;;;;;6270763;27;82435;-72
2022/04/14 15:07:40;;;;;;;6.60;5.72;;;22.90;72.50;;;;;;6260822;27;83951;-74
2022/04/14 15:10:42;;;;;;;7.47;6.72;;;22.90;72.40;;;;;;6263664;27;81845;-72
2022/04/14 15:13:46;;;;;;;6.90;6.18;;;22.90;73.00;;;;;;6261572;27;85142;-75
2022/04/14 15:16:48;;;;;;;7.85;6.90;;;22.90;72.90;;;;;;6233728;27;82907;-75
2022/04/14 15:19:50;;;;;;;7.60;6.38;;;22.90;72.60;;;;;;6239393;28;84066;-77
2022/04/14 15:22:52;;;;;;;6.82;6.22;;;22.90;72.50;;;;;;6237498;28;83979;-76
2022/04/14 15:25:54;;;;;;;7.80;7.00;;;22.90;72.50;;;;;;6236536;28;83203;-75
2022/04/14 15:28:58;;;;;;;7.15;6.43;;;22.90;72.50;;;;;;6236535;28;84053;-74
2022/04/14 15:32:00;;;;;;;7.88;7.07;;;22.90;72.30;;;;;;6238292;27;84842;-77
2022/04/14 15:35:02;;;;;;;7.38;6.78;;;23.00;72.30;;;;;;6236544;28;82247;-77
2022/04/14 15:38:05;;;;;;;7.70;6.90;;;23.00;72.20;;;;;;6235570;28;84134;-76
2022/04/14 15:41:08;;;;;;;7.20;6.50;;;22.90;72.20;;;;;;6234313;28;83061;-76
2022/04/14 15:44:11;;;;;;;6.82;6.13;;;23.00;72.20;;;;;;6237114;28;85041;-76
2022/04/14 15:47:13;;;;;;;6.82;6.22;;;23.00;72.20;;;;;;6240474;28;84053;-74
2022/04/14 15:50:15;;;;;;;7.05;5.63;;;23.00;72.10;;;;;;6235107;28;84017;-75
2022/04/14 15:53:19;;;;;;;7.47;6.78;;;22.90;72.20;;;;;;6235273;28;84095;-76
2022/04/14 15:56:21;;;;;;;6.32;5.82;;;22.90;72.00;;;;;;6235292;28;84100;-76
2022/04/14 15:59:25;;;;;;;6.47;5.88;;;22.90;71.90;;;;;;6235854;28;84042;-75